sensor_id;sensor_type;location;lat;lon;timestamp;temperature;humidity
52849;DHT22;38714;53.180;5.812;2024-03-08T00:02:03;2.90;99.90
52849;DHT22;38714;53.180;5.812;2024-03-08T00:04:29;2.90;99.90
52849;DHT22;38714;53.180;5.812;2024-03-08T00:06:55;2.90;99.90
52849;DHT22;38714;53.180;5.812;2024-03-08T00:09:20;2.80;99.90
52849;DHT22;38714;53.180;5.812;2024-03-08T00:11:47;2.90;99.90
52849;DHT22;38714;53.180;5.812;2024-03-08T00:14:14;2.90;99.90
52849;DHT22;38714;53.180;5.812;2024-03-08T00:16:39;2.80;99.90
52849;DHT22;38714;53.180;5.812;2024-03-08T00:19:09;2.80;99.90
52849;DHT22;38714;53.180;5.812;2024-03-08T00:21:35;2.80;99.90
52849;DHT22;38714;53.180;5.812;2024-03-08T00:24:01;2.80;99.90
52849;DHT22;38714;53.180;5.812;2024-03-08T00:26:27;2.80;99.90
52849;DHT22;38714;53.180;5.812;2024-03-08T00:28:52;2.80;99.90
52849;DHT22;38714;53.180;5.812;2024-03-08T00:31:19;2.80;99.90
52849;DHT22;38714;53.180;5.812;2024-03-08T00:33:45;2.80;99.90
52849;DHT22;38714;53.180;5.812;2024-03-08T00:36:11;2.70;99.90
52849;DHT22;38714;53.180;5.812;2024-03-08T00:38:36;2.70;99.90
52849;DHT22;38714;53.180;5.812;2024-03-08T00:41:02;2.70;99.90
52849;DHT22;38714;53.180;5.812;2024-03-08T00:43:28;2.70;99.90
52849;DHT22;38714;53.180;5.812;2024-03-08T00:45:55;2.70;99.90
52849;DHT22;38714;53.180;5.812;2024-03-08T00:48:21;2.70;99.90
52849;DHT22;38714;53.180;5.812;2024-03-08T00:50:46;2.70;99.90
52849;DHT22;38714;53.180;5.812;2024-03-08T00:53:12;2.70;99.90
52849;DHT22;38714;53.180;5.812;2024-03-08T00:55:38;2.70;99.90
52849;DHT22;38714;53.180;5.812;2024-03-08T00:58:05;2.70;99.90
52849;DHT22;38714;53.180;5.812;2024-03-08T01:00:30;2.60;99.90
52849;DHT22;38714;53.180;5.812;2024-03-08T01:02:56;2.70;99.90
52849;DHT22;38714;53.180;5.812;2024-03-08T01:05:22;2.70;99.90
52849;DHT22;38714;53.180;5.812;2024-03-08T01:07:50;2.60;99.90
52849;DHT22;38714;53.180;5.812;2024-03-08T01:10:15;2.60;99.90
52849;DHT22;38714;53.180;5.812;2024-03-08T01:12:41;2.60;99.90
52849;DHT22;38714;53.180;5.812;2024-03-08T01:15:09;2.60;99.90
52849;DHT22;38714;53.180;5.812;2024-03-08T01:17:36;2.60;99.90
52849;DHT22;38714;53.180;5.812;2024-03-08T01:20:03;2.60;99.90
52849;DHT22;38714;53.180;5.812;2024-03-08T01:22:29;2.60;99.90
52849;DHT22;38714;53.180;5.812;2024-03-08T01:24:55;2.60;99.90
52849;DHT22;38714;53.180;5.812;2024-03-08T01:27:21;2.60;99.90
52849;DHT22;38714;53.180;5.812;2024-03-08T01:29:47;2.50;99.90
52849;DHT22;38714;53.180;5.812;2024-03-08T01:32:13;2.50;99.90
52849;DHT22;38714;53.180;5.812;2024-03-08T01:34:39;2.50;99.90
52849;DHT22;38714;53.180;5.812;2024-03-08T01:37:04;2.50;99.90
52849;DHT22;38714;53.180;5.812;2024-03-08T01:39:30;2.50;99.90
52849;DHT22;38714;53.180;5.812;2024-03-08T01:41:57;2.50;99.90
52849;DHT22;38714;53.180;5.812;2024-03-08T01:44:23;2.40;99.90
52849;DHT22;38714;53.180;5.812;2024-03-08T01:46:49;2.40;99.90
52849;DHT22;38714;53.180;5.812;2024-03-08T01:49:18;2.40;99.90
52849;DHT22;38714;53.180;5.812;2024-03-08T01:51:46;2.40;99.90
52849;DHT22;38714;53.180;5.812;2024-03-08T01:54:12;2.40;99.90
52849;DHT22;38714;53.180;5.812;2024-03-08T01:56:40;2.40;99.90
52849;DHT22;38714;53.180;5.812;2024-03-08T01:59:06;2.40;99.90
52849;DHT22;38714;53.180;5.812;2024-03-08T02:01:33;2.40;99.90
52849;DHT22;38714;53.180;5.812;2024-03-08T02:03:59;2.30;99.90
52849;DHT22;38714;53.180;5.812;2024-03-08T02:06:25;2.30;99.90
52849;DHT22;38714;53.180;5.812;2024-03-08T02:08:50;2.30;99.90
52849;DHT22;38714;53.180;5.812;2024-03-08T02:11:16;2.30;99.90
52849;DHT22;38714;53.180;5.812;2024-03-08T02:16:26;2.30;99.90
52849;DHT22;38714;53.180;5.812;2024-03-08T02:18:52;2.30;99.90
52849;DHT22;38714;53.180;5.812;2024-03-08T02:21:18;2.20;99.90
52849;DHT22;38714;53.180;5.812;2024-03-08T02:23:44;2.20;99.90
52849;DHT22;38714;53.180;5.812;2024-03-08T02:26:10;2.20;99.90
52849;DHT22;38714;53.180;5.812;2024-03-08T02:28:36;2.20;99.90
52849;DHT22;38714;53.180;5.812;2024-03-08T02:31:02;2.20;99.90
52849;DHT22;38714;53.180;5.812;2024-03-08T02:33:28;2.20;99.90
52849;DHT22;38714;53.180;5.812;2024-03-08T02:35:54;2.20;99.90
52849;DHT22;38714;53.180;5.812;2024-03-08T02:38:22;2.20;99.90
52849;DHT22;38714;53.180;5.812;2024-03-08T02:40:49;2.20;99.90
52849;DHT22;38714;53.180;5.812;2024-03-08T02:43:17;2.20;99.90
52849;DHT22;38714;53.180;5.812;2024-03-08T02:45:43;2.20;99.90
52849;DHT22;38714;53.180;5.812;2024-03-08T02:48:09;2.10;99.90
52849;DHT22;38714;53.180;5.812;2024-03-08T02:50:36;2.10;99.90
52849;DHT22;38714;53.180;5.812;2024-03-08T02:53:03;2.10;99.90
52849;DHT22;38714;53.180;5.812;2024-03-08T02:55:29;2.10;99.90
52849;DHT22;38714;53.180;5.812;2024-03-08T02:57:55;2.10;99.90
52849;DHT22;38714;53.180;5.812;2024-03-08T03:00:21;2.10;99.90
52849;DHT22;38714;53.180;5.812;2024-03-08T03:02:49;2.10;99.90
52849;DHT22;38714;53.180;5.812;2024-03-08T03:05:22;2.00;99.90
52849;DHT22;38714;53.180;5.812;2024-03-08T03:07:48;2.00;99.90
52849;DHT22;38714;53.180;5.812;2024-03-08T03:10:14;2.00;99.90
52849;DHT22;38714;53.180;5.812;2024-03-08T03:12:42;2.00;99.90
52849;DHT22;38714;53.180;5.812;2024-03-08T03:15:08;2.00;99.90
52849;DHT22;38714;53.180;5.812;2024-03-08T03:17:34;1.90;99.90
52849;DHT22;38714;53.180;5.812;2024-03-08T03:20:00;1.90;99.90
52849;DHT22;38714;53.180;5.812;2024-03-08T03:22:34;1.90;99.90
52849;DHT22;38714;53.180;5.812;2024-03-08T03:25:00;2.00;99.90
52849;DHT22;38714;53.180;5.812;2024-03-08T03:27:25;2.00;99.90
52849;DHT22;38714;53.180;5.812;2024-03-08T03:29:51;1.90;99.90
52849;DHT22;38714;53.180;5.812;2024-03-08T03:32:17;1.90;99.90
52849;DHT22;38714;53.180;5.812;2024-03-08T03:34:44;1.90;99.90
52849;DHT22;38714;53.180;5.812;2024-03-08T03:37:10;1.90;99.90
52849;DHT22;38714;53.180;5.812;2024-03-08T03:39:39;1.90;99.90
52849;DHT22;38714;53.180;5.812;2024-03-08T03:42:15;1.90;99.90
52849;DHT22;38714;53.180;5.812;2024-03-08T03:44:44;1.80;99.90
52849;DHT22;38714;53.180;5.812;2024-03-08T03:47:10;1.80;99.90
52849;DHT22;38714;53.180;5.812;2024-03-08T03:49:35;1.90;99.90
52849;DHT22;38714;53.180;5.812;2024-03-08T03:52:01;1.80;99.90
52849;DHT22;38714;53.180;5.812;2024-03-08T03:54:26;1.80;99.90
52849;DHT22;38714;53.180;5.812;2024-03-08T03:56:52;1.80;99.90
52849;DHT22;38714;53.180;5.812;2024-03-08T03:59:18;1.80;99.90
52849;DHT22;38714;53.180;5.812;2024-03-08T04:01:44;1.80;99.90
52849;DHT22;38714;53.180;5.812;2024-03-08T04:04:10;1.80;99.90
52849;DHT22;38714;53.180;5.812;2024-03-08T04:06:37;1.80;99.90
52849;DHT22;38714;53.180;5.812;2024-03-08T04:09:03;1.70;99.90
52849;DHT22;38714;53.180;5.812;2024-03-08T04:11:30;1.80;99.90
52849;DHT22;38714;53.180;5.812;2024-03-08T04:13:55;1.80;99.90
52849;DHT22;38714;53.180;5.812;2024-03-08T04:16:21;1.70;99.90
52849;DHT22;38714;53.180;5.812;2024-03-08T04:18:47;1.70;99.90
52849;DHT22;38714;53.180;5.812;2024-03-08T04:21:13;1.80;99.90
52849;DHT22;38714;53.180;5.812;2024-03-08T04:23:39;1.70;99.90
52849;DHT22;38714;53.180;5.812;2024-03-08T04:26:05;1.70;99.90
52849;DHT22;38714;53.180;5.812;2024-03-08T04:28:31;1.70;99.90
52849;DHT22;38714;53.180;5.812;2024-03-08T04:30:58;1.70;99.90
52849;DHT22;38714;53.180;5.812;2024-03-08T04:33:26;1.70;99.90
52849;DHT22;38714;53.180;5.812;2024-03-08T04:35:51;1.70;99.90
52849;DHT22;38714;53.180;5.812;2024-03-08T04:38:17;1.70;99.90
52849;DHT22;38714;53.180;5.812;2024-03-08T04:40:42;1.70;99.90
52849;DHT22;38714;53.180;5.812;2024-03-08T04:43:08;1.70;99.90
52849;DHT22;38714;53.180;5.812;2024-03-08T04:45:36;1.60;99.90
52849;DHT22;38714;53.180;5.812;2024-03-08T04:48:02;1.70;99.90
52849;DHT22;38714;53.180;5.812;2024-03-08T04:50:27;1.60;99.90
52849;DHT22;38714;53.180;5.812;2024-03-08T04:52:55;1.60;99.90
52849;DHT22;38714;53.180;5.812;2024-03-08T04:55:21;1.60;99.90
52849;DHT22;38714;53.180;5.812;2024-03-08T04:57:48;1.60;99.90
52849;DHT22;38714;53.180;5.812;2024-03-08T05:00:14;1.60;99.90
52849;DHT22;38714;53.180;5.812;2024-03-08T05:02:41;1.60;99.90
52849;DHT22;38714;53.180;5.812;2024-03-08T05:05:09;1.60;99.90
52849;DHT22;38714;53.180;5.812;2024-03-08T05:07:38;1.50;99.90
52849;DHT22;38714;53.180;5.812;2024-03-08T05:10:05;1.50;99.90
52849;DHT22;38714;53.180;5.812;2024-03-08T05:12:32;1.50;99.90
52849;DHT22;38714;53.180;5.812;2024-03-08T05:14:58;1.50;99.90
52849;DHT22;38714;53.180;5.812;2024-03-08T05:17:24;1.50;99.90
52849;DHT22;38714;53.180;5.812;2024-03-08T05:19:50;1.50;99.90
52849;DHT22;38714;53.180;5.812;2024-03-08T05:22:16;1.50;99.90
52849;DHT22;38714;53.180;5.812;2024-03-08T05:24:42;1.50;99.90
52849;DHT22;38714;53.180;5.812;2024-03-08T05:27:08;1.40;99.90
52849;DHT22;38714;53.180;5.812;2024-03-08T05:29:34;1.40;99.90
52849;DHT22;38714;53.180;5.812;2024-03-08T05:31:59;1.40;99.90
52849;DHT22;38714;53.180;5.812;2024-03-08T05:34:25;1.40;99.90
52849;DHT22;38714;53.180;5.812;2024-03-08T05:36:51;1.40;99.90
52849;DHT22;38714;53.180;5.812;2024-03-08T05:39:18;1.40;99.90
52849;DHT22;38714;53.180;5.812;2024-03-08T05:41:44;1.40;99.90
52849;DHT22;38714;53.180;5.812;2024-03-08T05:44:10;1.40;99.90
52849;DHT22;38714;53.180;5.812;2024-03-08T05:46:36;1.40;99.90
52849;DHT22;38714;53.180;5.812;2024-03-08T05:49:06;1.40;99.90
52849;DHT22;38714;53.180;5.812;2024-03-08T05:51:36;1.40;99.90
52849;DHT22;38714;53.180;5.812;2024-03-08T05:54:06;1.30;99.90
52849;DHT22;38714;53.180;5.812;2024-03-08T05:56:32;1.30;99.90
52849;DHT22;38714;53.180;5.812;2024-03-08T05:58:58;1.30;99.90
52849;DHT22;38714;53.180;5.812;2024-03-08T06:01:24;1.30;99.90
52849;DHT22;38714;53.180;5.812;2024-03-08T06:03:50;1.30;99.90
52849;DHT22;38714;53.180;5.812;2024-03-08T06:06:15;1.30;99.90
52849;DHT22;38714;53.180;5.812;2024-03-08T06:08:43;1.30;99.90
52849;DHT22;38714;53.180;5.812;2024-03-08T06:11:09;1.30;99.90
52849;DHT22;38714;53.180;5.812;2024-03-08T06:13:35;1.30;99.90
52849;DHT22;38714;53.180;5.812;2024-03-08T06:16:01;1.30;99.90
52849;DHT22;38714;53.180;5.812;2024-03-08T06:18:30;1.30;99.90
52849;DHT22;38714;53.180;5.812;2024-03-08T06:20:56;1.30;99.90
52849;DHT22;38714;53.180;5.812;2024-03-08T06:23:22;1.30;99.90
52849;DHT22;38714;53.180;5.812;2024-03-08T06:25:47;1.20;99.90
52849;DHT22;38714;53.180;5.812;2024-03-08T06:28:13;1.20;99.90
52849;DHT22;38714;53.180;5.812;2024-03-08T06:30:39;1.20;99.90
52849;DHT22;38714;53.180;5.812;2024-03-08T06:33:05;1.30;99.90
52849;DHT22;38714;53.180;5.812;2024-03-08T06:35:31;1.20;99.90
52849;DHT22;38714;53.180;5.812;2024-03-08T06:37:58;1.20;99.90
52849;DHT22;38714;53.180;5.812;2024-03-08T06:40:23;1.30;99.90
52849;DHT22;38714;53.180;5.812;2024-03-08T06:42:49;1.30;99.90
52849;DHT22;38714;53.180;5.812;2024-03-08T06:45:17;1.20;99.90
52849;DHT22;38714;53.180;5.812;2024-03-08T06:47:46;1.20;99.90
52849;DHT22;38714;53.180;5.812;2024-03-08T06:50:12;1.30;99.90
52849;DHT22;38714;53.180;5.812;2024-03-08T06:52:38;1.20;99.90
52849;DHT22;38714;53.180;5.812;2024-03-08T06:55:04;1.30;99.90
52849;DHT22;38714;53.180;5.812;2024-03-08T06:57:31;1.30;99.90
52849;DHT22;38714;53.180;5.812;2024-03-08T06:59:57;1.30;99.90
52849;DHT22;38714;53.180;5.812;2024-03-08T07:02:23;1.30;99.90
52849;DHT22;38714;53.180;5.812;2024-03-08T07:04:51;1.30;99.90
52849;DHT22;38714;53.180;5.812;2024-03-08T07:07:18;1.40;99.90
52849;DHT22;38714;53.180;5.812;2024-03-08T07:09:45;1.30;99.90
52849;DHT22;38714;53.180;5.812;2024-03-08T07:12:11;1.30;99.90
52849;DHT22;38714;53.180;5.812;2024-03-08T07:14:38;1.40;99.90
52849;DHT22;38714;53.180;5.812;2024-03-08T07:17:07;1.40;99.90
52849;DHT22;38714;53.180;5.812;2024-03-08T07:19:34;1.40;99.90
52849;DHT22;38714;53.180;5.812;2024-03-08T07:22:00;1.40;99.90
52849;DHT22;38714;53.180;5.812;2024-03-08T07:24:25;1.40;99.90
52849;DHT22;38714;53.180;5.812;2024-03-08T07:27:10;1.50;99.90
52849;DHT22;38714;53.180;5.812;2024-03-08T07:29:36;1.50;99.90
52849;DHT22;38714;53.180;5.812;2024-03-08T07:32:01;1.50;99.90
52849;DHT22;38714;53.180;5.812;2024-03-08T07:34:45;1.50;99.90
52849;DHT22;38714;53.180;5.812;2024-03-08T07:37:11;1.60;99.90
52849;DHT22;38714;53.180;5.812;2024-03-08T07:39:39;1.60;99.90
52849;DHT22;38714;53.180;5.812;2024-03-08T07:42:05;1.60;99.90
52849;DHT22;38714;53.180;5.812;2024-03-08T07:44:31;1.70;99.90
52849;DHT22;38714;53.180;5.812;2024-03-08T07:46:58;1.70;99.90
52849;DHT22;38714;53.180;5.812;2024-03-08T07:49:24;1.70;99.90
52849;DHT22;38714;53.180;5.812;2024-03-08T07:51:49;1.70;99.90
52849;DHT22;38714;53.180;5.812;2024-03-08T07:54:15;1.80;99.90
52849;DHT22;38714;53.180;5.812;2024-03-08T07:56:41;1.80;99.90
52849;DHT22;38714;53.180;5.812;2024-03-08T07:59:07;1.80;99.90
52849;DHT22;38714;53.180;5.812;2024-03-08T08:01:33;1.80;99.90
52849;DHT22;38714;53.180;5.812;2024-03-08T08:03:59;1.90;99.90
52849;DHT22;38714;53.180;5.812;2024-03-08T08:06:27;1.90;99.90
52849;DHT22;38714;53.180;5.812;2024-03-08T08:08:53;2.00;99.90
52849;DHT22;38714;53.180;5.812;2024-03-08T08:11:19;2.00;99.90
52849;DHT22;38714;53.180;5.812;2024-03-08T08:13:45;2.00;99.90
52849;DHT22;38714;53.180;5.812;2024-03-08T08:16:11;2.10;99.90
52849;DHT22;38714;53.180;5.812;2024-03-08T08:18:38;2.10;99.90
52849;DHT22;38714;53.180;5.812;2024-03-08T08:21:05;2.10;99.90
52849;DHT22;38714;53.180;5.812;2024-03-08T08:23:32;2.20;99.90
52849;DHT22;38714;53.180;5.812;2024-03-08T08:25:57;2.20;99.90
52849;DHT22;38714;53.180;5.812;2024-03-08T08:28:23;2.30;99.90
52849;DHT22;38714;53.180;5.812;2024-03-08T08:30:50;2.30;99.90
52849;DHT22;38714;53.180;5.812;2024-03-08T08:33:16;2.40;99.90
52849;DHT22;38714;53.180;5.812;2024-03-08T08:35:41;2.40;99.90
52849;DHT22;38714;53.180;5.812;2024-03-08T08:38:08;2.40;99.90
52849;DHT22;38714;53.180;5.812;2024-03-08T08:40:34;2.50;99.90
52849;DHT22;38714;53.180;5.812;2024-03-08T08:43:01;2.50;99.90
52849;DHT22;38714;53.180;5.812;2024-03-08T08:45:30;2.50;99.90
52849;DHT22;38714;53.180;5.812;2024-03-08T08:47:56;2.60;99.90
52849;DHT22;38714;53.180;5.812;2024-03-08T08:50:22;2.60;99.90
52849;DHT22;38714;53.180;5.812;2024-03-08T08:52:52;2.70;99.90
52849;DHT22;38714;53.180;5.812;2024-03-08T08:55:18;2.70;99.90
52849;DHT22;38714;53.180;5.812;2024-03-08T08:57:46;2.70;99.90
52849;DHT22;38714;53.180;5.812;2024-03-08T09:00:13;2.80;99.90
52849;DHT22;38714;53.180;5.812;2024-03-08T09:02:41;2.80;99.90
52849;DHT22;38714;53.180;5.812;2024-03-08T09:05:07;2.80;99.90
52849;DHT22;38714;53.180;5.812;2024-03-08T09:07:36;2.90;99.90
52849;DHT22;38714;53.180;5.812;2024-03-08T09:10:03;2.90;99.90
52849;DHT22;38714;53.180;5.812;2024-03-08T09:12:29;3.00;99.90
52849;DHT22;38714;53.180;5.812;2024-03-08T09:14:55;3.00;99.90
52849;DHT22;38714;53.180;5.812;2024-03-08T09:17:20;3.10;99.90
52849;DHT22;38714;53.180;5.812;2024-03-08T09:19:47;3.10;99.90
52849;DHT22;38714;53.180;5.812;2024-03-08T09:22:13;3.20;99.90
52849;DHT22;38714;53.180;5.812;2024-03-08T09:24:39;3.20;99.90
52849;DHT22;38714;53.180;5.812;2024-03-08T09:27:05;3.30;99.90
52849;DHT22;38714;53.180;5.812;2024-03-08T09:29:30;3.30;99.90
52849;DHT22;38714;53.180;5.812;2024-03-08T09:31:56;3.40;99.90
52849;DHT22;38714;53.180;5.812;2024-03-08T09:34:21;3.40;99.90
52849;DHT22;38714;53.180;5.812;2024-03-08T09:36:47;3.40;99.90
52849;DHT22;38714;53.180;5.812;2024-03-08T09:39:13;3.50;99.90
52849;DHT22;38714;53.180;5.812;2024-03-08T09:41:45;3.50;99.90
52849;DHT22;38714;53.180;5.812;2024-03-08T09:44:14;3.60;99.90
52849;DHT22;38714;53.180;5.812;2024-03-08T09:46:40;3.60;99.90
52849;DHT22;38714;53.180;5.812;2024-03-08T09:49:06;3.60;99.90
52849;DHT22;38714;53.180;5.812;2024-03-08T09:51:34;3.70;99.90
52849;DHT22;38714;53.180;5.812;2024-03-08T09:54:03;3.70;99.90
52849;DHT22;38714;53.180;5.812;2024-03-08T09:56:35;3.70;99.90
52849;DHT22;38714;53.180;5.812;2024-03-08T09:59:02;3.80;99.90
52849;DHT22;38714;53.180;5.812;2024-03-08T10:01:37;3.80;99.90
52849;DHT22;38714;53.180;5.812;2024-03-08T10:04:04;3.90;99.90
52849;DHT22;38714;53.180;5.812;2024-03-08T10:06:29;3.90;99.90
52849;DHT22;38714;53.180;5.812;2024-03-08T10:08:56;3.90;99.90
52849;DHT22;38714;53.180;5.812;2024-03-08T10:11:22;4.00;99.90
52849;DHT22;38714;53.180;5.812;2024-03-08T10:13:48;4.00;99.90
52849;DHT22;38714;53.180;5.812;2024-03-08T10:16:15;4.00;99.90
52849;DHT22;38714;53.180;5.812;2024-03-08T10:18:42;4.10;99.90
52849;DHT22;38714;53.180;5.812;2024-03-08T10:21:09;4.10;99.90
52849;DHT22;38714;53.180;5.812;2024-03-08T10:23:39;4.10;99.90
52849;DHT22;38714;53.180;5.812;2024-03-08T10:26:16;4.10;99.90
52849;DHT22;38714;53.180;5.812;2024-03-08T10:28:46;4.20;99.90
52849;DHT22;38714;53.180;5.812;2024-03-08T10:31:16;4.20;99.90
52849;DHT22;38714;53.180;5.812;2024-03-08T10:33:41;4.20;99.90
52849;DHT22;38714;53.180;5.812;2024-03-08T10:36:08;4.20;99.90
52849;DHT22;38714;53.180;5.812;2024-03-08T10:38:41;4.30;99.90
52849;DHT22;38714;53.180;5.812;2024-03-08T10:41:10;4.30;99.90
52849;DHT22;38714;53.180;5.812;2024-03-08T10:43:46;4.30;99.90
52849;DHT22;38714;53.180;5.812;2024-03-08T10:46:27;4.40;99.90
52849;DHT22;38714;53.180;5.812;2024-03-08T10:48:58;4.40;99.90
52849;DHT22;38714;53.180;5.812;2024-03-08T10:51:29;4.40;99.90
52849;DHT22;38714;53.180;5.812;2024-03-08T10:53:57;4.40;99.90
52849;DHT22;38714;53.180;5.812;2024-03-08T10:56:23;4.40;99.90
52849;DHT22;38714;53.180;5.812;2024-03-08T10:58:49;4.50;99.90
52849;DHT22;38714;53.180;5.812;2024-03-08T11:01:15;4.50;99.90
52849;DHT22;38714;53.180;5.812;2024-03-08T11:06:16;4.60;99.90
52849;DHT22;38714;53.180;5.812;2024-03-08T11:08:43;4.60;99.90
52849;DHT22;38714;53.180;5.812;2024-03-08T11:11:29;4.60;99.90
52849;DHT22;38714;53.180;5.812;2024-03-08T11:14:00;4.70;99.90
52849;DHT22;38714;53.180;5.812;2024-03-08T11:21:36;4.80;99.90
52849;DHT22;38714;53.180;5.812;2024-03-08T11:24:10;4.90;99.90
52849;DHT22;38714;53.180;5.812;2024-03-08T11:26:37;4.90;99.90
52849;DHT22;38714;53.180;5.812;2024-03-08T11:32:17;4.90;99.90
52849;DHT22;38714;53.180;5.812;2024-03-08T11:34:46;5.00;99.90
52849;DHT22;38714;53.180;5.812;2024-03-08T11:37:21;5.00;99.90
52849;DHT22;38714;53.180;5.812;2024-03-08T11:39:47;5.00;99.90
52849;DHT22;38714;53.180;5.812;2024-03-08T11:42:15;5.10;99.90
52849;DHT22;38714;53.180;5.812;2024-03-08T11:44:43;5.10;99.90
52849;DHT22;38714;53.180;5.812;2024-03-08T11:47:10;5.20;99.90
52849;DHT22;38714;53.180;5.812;2024-03-08T11:49:37;5.20;99.90
52849;DHT22;38714;53.180;5.812;2024-03-08T11:52:03;5.20;99.90
52849;DHT22;38714;53.180;5.812;2024-03-08T11:54:29;5.20;99.90
52849;DHT22;38714;53.180;5.812;2024-03-08T11:56:56;5.30;99.90
52849;DHT22;38714;53.180;5.812;2024-03-08T11:59:28;5.30;99.90
52849;DHT22;38714;53.180;5.812;2024-03-08T12:02:06;5.30;99.90
52849;DHT22;38714;53.180;5.812;2024-03-08T12:04:35;5.40;99.90
52849;DHT22;38714;53.180;5.812;2024-03-08T12:07:02;5.40;99.90
52849;DHT22;38714;53.180;5.812;2024-03-08T12:09:28;5.40;99.90
52849;DHT22;38714;53.180;5.812;2024-03-08T12:11:54;5.40;99.90
52849;DHT22;38714;53.180;5.812;2024-03-08T12:14:20;5.50;99.90
52849;DHT22;38714;53.180;5.812;2024-03-08T12:16:46;5.50;99.90
52849;DHT22;38714;53.180;5.812;2024-03-08T12:19:14;5.50;99.90
52849;DHT22;38714;53.180;5.812;2024-03-08T12:21:39;5.60;99.90
52849;DHT22;38714;53.180;5.812;2024-03-08T12:24:11;5.60;99.90
52849;DHT22;38714;53.180;5.812;2024-03-08T12:26:42;5.60;99.90
52849;DHT22;38714;53.180;5.812;2024-03-08T12:29:20;5.60;99.90
52849;DHT22;38714;53.180;5.812;2024-03-08T12:31:50;5.70;99.90
52849;DHT22;38714;53.180;5.812;2024-03-08T12:34:16;5.70;99.90
52849;DHT22;38714;53.180;5.812;2024-03-08T12:36:46;5.80;99.90
52849;DHT22;38714;53.180;5.812;2024-03-08T12:39:18;5.80;99.90
52849;DHT22;38714;53.180;5.812;2024-03-08T12:41:48;5.80;99.90
52849;DHT22;38714;53.180;5.812;2024-03-08T12:44:14;5.80;99.90
52849;DHT22;38714;53.180;5.812;2024-03-08T12:46:40;5.90;99.90
52849;DHT22;38714;53.180;5.812;2024-03-08T12:49:09;5.90;99.90
52849;DHT22;38714;53.180;5.812;2024-03-08T12:51:35;5.90;99.90
52849;DHT22;38714;53.180;5.812;2024-03-08T12:54:01;6.00;99.90
52849;DHT22;38714;53.180;5.812;2024-03-08T12:56:31;6.00;99.90
52849;DHT22;38714;53.180;5.812;2024-03-08T12:58:59;6.00;99.90
52849;DHT22;38714;53.180;5.812;2024-03-08T13:01:25;6.00;99.90
52849;DHT22;38714;53.180;5.812;2024-03-08T13:03:52;6.10;99.90
52849;DHT22;38714;53.180;5.812;2024-03-08T13:06:18;6.10;99.90
52849;DHT22;38714;53.180;5.812;2024-03-08T13:08:47;6.20;99.90
52849;DHT22;38714;53.180;5.812;2024-03-08T13:11:13;6.20;99.90
52849;DHT22;38714;53.180;5.812;2024-03-08T13:13:42;6.20;99.90
52849;DHT22;38714;53.180;5.812;2024-03-08T13:16:08;6.30;99.90
52849;DHT22;38714;53.180;5.812;2024-03-08T13:18:35;6.30;99.90
52849;DHT22;38714;53.180;5.812;2024-03-08T13:21:00;6.40;99.90
52849;DHT22;38714;53.180;5.812;2024-03-08T13:23:33;6.40;99.90
52849;DHT22;38714;53.180;5.812;2024-03-08T13:26:07;6.40;99.90
52849;DHT22;38714;53.180;5.812;2024-03-08T13:28:33;6.50;99.90
52849;DHT22;38714;53.180;5.812;2024-03-08T13:31:05;6.50;99.90
52849;DHT22;38714;53.180;5.812;2024-03-08T13:33:36;6.50;99.90
52849;DHT22;38714;53.180;5.812;2024-03-08T13:36:05;6.50;99.90
52849;DHT22;38714;53.180;5.812;2024-03-08T13:38:32;6.60;99.90
52849;DHT22;38714;53.180;5.812;2024-03-08T13:40:59;6.60;99.90
52849;DHT22;38714;53.180;5.812;2024-03-08T13:43:24;6.60;99.90
52849;DHT22;38714;53.180;5.812;2024-03-08T13:45:50;6.70;99.90
52849;DHT22;38714;53.180;5.812;2024-03-08T13:48:17;6.70;99.90
52849;DHT22;38714;53.180;5.812;2024-03-08T13:50:43;6.70;99.90
52849;DHT22;38714;53.180;5.812;2024-03-08T13:53:09;6.70;99.90
52849;DHT22;38714;53.180;5.812;2024-03-08T13:55:35;6.70;99.90
52849;DHT22;38714;53.180;5.812;2024-03-08T13:58:01;6.70;99.90
52849;DHT22;38714;53.180;5.812;2024-03-08T14:00:28;6.80;99.90
52849;DHT22;38714;53.180;5.812;2024-03-08T14:02:58;6.80;99.90
52849;DHT22;38714;53.180;5.812;2024-03-08T14:05:27;6.80;99.90
52849;DHT22;38714;53.180;5.812;2024-03-08T14:07:53;6.90;99.90
52849;DHT22;38714;53.180;5.812;2024-03-08T14:10:19;6.90;99.90
52849;DHT22;38714;53.180;5.812;2024-03-08T14:12:48;6.90;99.90
52849;DHT22;38714;53.180;5.812;2024-03-08T14:15:15;6.90;99.90
52849;DHT22;38714;53.180;5.812;2024-03-08T14:17:42;6.90;99.90
52849;DHT22;38714;53.180;5.812;2024-03-08T14:20:08;6.90;99.90
52849;DHT22;38714;53.180;5.812;2024-03-08T14:22:35;6.90;99.90
52849;DHT22;38714;53.180;5.812;2024-03-08T14:25:01;6.90;99.90
52849;DHT22;38714;53.180;5.812;2024-03-08T14:27:27;6.90;99.90
52849;DHT22;38714;53.180;5.812;2024-03-08T14:29:54;7.00;99.90
52849;DHT22;38714;53.180;5.812;2024-03-08T14:32:20;7.00;99.90
52849;DHT22;38714;53.180;5.812;2024-03-08T14:34:48;7.10;99.90
52849;DHT22;38714;53.180;5.812;2024-03-08T14:37:14;7.10;99.90
52849;DHT22;38714;53.180;5.812;2024-03-08T14:39:40;7.10;99.90
52849;DHT22;38714;53.180;5.812;2024-03-08T14:42:05;7.10;99.90
52849;DHT22;38714;53.180;5.812;2024-03-08T14:44:33;7.10;99.90
52849;DHT22;38714;53.180;5.812;2024-03-08T14:46:59;7.10;99.90
52849;DHT22;38714;53.180;5.812;2024-03-08T14:49:28;7.10;99.90
52849;DHT22;38714;53.180;5.812;2024-03-08T14:51:55;7.10;99.90
52849;DHT22;38714;53.180;5.812;2024-03-08T14:54:21;7.10;99.90
52849;DHT22;38714;53.180;5.812;2024-03-08T14:56:49;7.10;99.90
52849;DHT22;38714;53.180;5.812;2024-03-08T14:59:17;7.20;99.90
52849;DHT22;38714;53.180;5.812;2024-03-08T15:01:45;7.20;99.90
52849;DHT22;38714;53.180;5.812;2024-03-08T15:04:11;7.20;99.90
52849;DHT22;38714;53.180;5.812;2024-03-08T15:06:40;7.20;99.90
52849;DHT22;38714;53.180;5.812;2024-03-08T15:09:06;7.20;99.90
52849;DHT22;38714;53.180;5.812;2024-03-08T15:11:45;7.20;99.90
52849;DHT22;38714;53.180;5.812;2024-03-08T15:14:11;7.20;99.90
52849;DHT22;38714;53.180;5.812;2024-03-08T15:16:46;7.20;99.90
52849;DHT22;38714;53.180;5.812;2024-03-08T15:19:14;7.20;99.90
52849;DHT22;38714;53.180;5.812;2024-03-08T15:21:41;7.20;99.90
52849;DHT22;38714;53.180;5.812;2024-03-08T15:24:08;7.20;99.90
52849;DHT22;38714;53.180;5.812;2024-03-08T15:26:41;7.20;99.90
52849;DHT22;38714;53.180;5.812;2024-03-08T15:29:08;7.20;99.90
52849;DHT22;38714;53.180;5.812;2024-03-08T15:31:34;7.20;99.90
52849;DHT22;38714;53.180;5.812;2024-03-08T15:34:00;7.20;99.90
52849;DHT22;38714;53.180;5.812;2024-03-08T15:36:34;7.20;99.90
52849;DHT22;38714;53.180;5.812;2024-03-08T15:39:00;7.20;99.90
52849;DHT22;38714;53.180;5.812;2024-03-08T15:41:27;7.20;99.90
52849;DHT22;38714;53.180;5.812;2024-03-08T15:43:52;7.20;99.90
52849;DHT22;38714;53.180;5.812;2024-03-08T15:46:18;7.20;99.90
52849;DHT22;38714;53.180;5.812;2024-03-08T15:48:48;7.20;99.90
52849;DHT22;38714;53.180;5.812;2024-03-08T15:51:15;7.10;99.90
52849;DHT22;38714;53.180;5.812;2024-03-08T15:53:43;7.20;99.90
52849;DHT22;38714;53.180;5.812;2024-03-08T15:56:10;7.10;99.90
52849;DHT22;38714;53.180;5.812;2024-03-08T15:58:35;7.20;99.90